Etusivu
METAR-TAF:

METAR-TAF

Lentoasemat :

Torsbyn, Ruotsi

Leveyspiiri: 60-09-17N, Pituuspiiri: 12-59-40E, korkeus merenpinnasta: 120 m

Tämänhetkinen sää

Tämä raportti tehtiin 38 minuuttia sitten, kello 11.20 UTC
Tuuli 9 kn lännestä/luoteesta, vaihdellen lännen ja pohjoisen/luoteen välillä
Lämpötila 13°C
Kosteus 54%
Ilmanpaine 1001 hPa
Näkyvyys 10 km tai enemmän

METAR: ESST 231120Z AUTO 30009KT 260V330 9999 BKN110/// 13/04 Q1001

Aika: 13:58 (11:58 UTC)


TAF: puuttuu

Säähavainnot ja -ennusteet yli 4000 lentoasemalta (METAR- ja TAF-raportit).

Käytössä olevat sääasemat on merkitty karttaan keltaisilla ja punaisilla pisteillä.

Aseta hiiri pisteen päälle nähdäksesi sääaseman nimen.

Klikkaa sitten nähdäksesi säähavainnot ja -ennusteet.

Kartan vaihtaminen: klikkaa mustalla rastilla varustettuja vihreitä pisteitä, niin voit zoomata sisään; viivalla varustettua vihreää pistettä, niin voit zoomata ulos tai vihreitä nuolia, niin pääset viereisille kartoille.


METAR-TAF: